createdAt,value
2022-10-30T00:01:06.510Z,16.22
2022-10-30T00:03:33.523Z,16.20
2022-10-30T00:06:03.663Z,16.17
2022-10-30T00:08:30.705Z,16.13
2022-10-30T00:10:57.764Z,16.08
2022-10-30T00:13:24.731Z,16.04
2022-10-30T00:15:53.926Z,16.01
2022-10-30T00:18:21.487Z,15.97
2022-10-30T00:20:48.930Z,15.94
2022-10-30T00:23:16.305Z,15.90
2022-10-30T00:25:43.309Z,15.86
2022-10-30T00:28:10.334Z,15.82
2022-10-30T00:30:37.640Z,15.78
2022-10-30T00:33:05.542Z,15.74
2022-10-30T00:35:32.704Z,15.70
2022-10-30T00:38:01.621Z,15.66
2022-10-30T00:40:29.151Z,15.64
2022-10-30T00:42:56.745Z,15.61
2022-10-30T00:45:24.680Z,15.56
2022-10-30T00:48:02.843Z,15.52
2022-10-30T00:50:35.491Z,15.49
2022-10-30T00:53:07.946Z,15.49
2022-10-30T00:56:06.644Z,15.46
2022-10-30T00:58:40.473Z,15.41
2022-10-30T01:01:13.930Z,15.38
2022-10-30T01:03:42.375Z,15.36
2022-10-30T01:06:14.409Z,15.31
2022-10-30T01:08:42.089Z,15.29
2022-10-30T01:11:10.598Z,15.26
2022-10-30T01:13:41.148Z,15.23
2022-10-30T01:16:35.060Z,15.18
2022-10-30T01:19:20.327Z,15.17
2022-10-30T01:22:14.379Z,15.15
2022-10-30T01:25:21.492Z,15.15
2022-10-30T01:28:04.314Z,15.12
2022-10-30T01:30:56.675Z,15.11
2022-10-30T01:34:10.219Z,15.09
2022-10-30T01:36:57.728Z,15.06
2022-10-30T01:39:29.226Z,15.03
2022-10-30T01:41:56.329Z,15.01
2022-10-30T01:44:33.119Z,15.01
2022-10-30T01:47:13.608Z,14.99
2022-10-30T01:50:08.207Z,14.98
2022-10-30T01:53:22.112Z,14.96
2022-10-30T01:56:58.343Z,14.95
2022-10-30T01:59:47.940Z,14.91
2022-10-30T02:02:15.148Z,14.89
2022-10-30T02:04:43.734Z,14.87
2022-10-30T02:07:11.952Z,14.86
2022-10-30T02:09:40.183Z,14.83
2022-10-30T02:12:08.663Z,14.80
2022-10-30T02:14:42.554Z,14.77
2022-10-30T02:17:11.692Z,14.73
2022-10-30T02:19:38.997Z,14.71
2022-10-30T02:22:06.389Z,14.68
2022-10-30T02:24:33.948Z,14.65
2022-10-30T02:27:01.897Z,14.63
2022-10-30T02:29:28.955Z,14.61
2022-10-30T02:31:56.048Z,14.58
2022-10-30T02:34:23.264Z,14.55
2022-10-30T02:36:50.299Z,14.54
2022-10-30T02:39:18.044Z,14.52
2022-10-30T02:41:45.216Z,14.48
2022-10-30T02:44:12.145Z,14.47
2022-10-30T02:46:39.299Z,14.43
2022-10-30T02:49:06.369Z,14.40
2022-10-30T02:51:33.525Z,14.42
2022-10-30T02:54:00.840Z,14.40
2022-10-30T02:56:28.145Z,14.38
2022-10-30T02:58:56.473Z,14.36
2022-10-30T03:01:23.772Z,14.33
2022-10-30T03:03:51.226Z,14.36
2022-10-30T03:06:18.466Z,14.35
2022-10-30T03:08:45.643Z,14.33
2022-10-30T03:11:18.148Z,14.33
2022-10-30T03:13:47.014Z,14.31
2022-10-30T03:16:18.321Z,14.29
2022-10-30T03:18:46.176Z,14.27
2022-10-30T03:21:18.097Z,14.27
2022-10-30T03:23:45.540Z,14.26
2022-10-30T03:26:12.798Z,14.28
2022-10-30T03:28:39.740Z,14.27
2022-10-30T03:31:11.162Z,14.28
2022-10-30T03:33:38.837Z,14.27
2022-10-30T03:36:08.920Z,14.26
2022-10-30T03:38:36.112Z,14.29
2022-10-30T03:41:03.476Z,14.32
2022-10-30T03:43:30.467Z,14.33
2022-10-30T03:45:57.901Z,14.34
2022-10-30T03:48:27.943Z,14.35
2022-10-30T03:50:57.240Z,14.34
2022-10-30T03:53:26.307Z,14.34
2022-10-30T03:55:58.215Z,14.34
2022-10-30T03:58:25.914Z,14.34
2022-10-30T04:00:53.046Z,14.37
2022-10-30T04:03:20.338Z,14.37
2022-10-30T04:05:51.016Z,14.41
2022-10-30T04:08:18.404Z,14.43
2022-10-30T04:10:47.138Z,14.46
2022-10-30T04:13:16.670Z,14.48
2022-10-30T04:15:43.912Z,14.46
2022-10-30T04:18:16.399Z,14.47
2022-10-30T04:20:44.900Z,14.47
2022-10-30T04:23:20.882Z,14.47
2022-10-30T04:25:48.462Z,14.44
2022-10-30T04:28:15.900Z,14.43
2022-10-30T04:30:43.239Z,14.41
2022-10-30T04:33:14.511Z,14.40
2022-10-30T04:35:42.353Z,14.38
2022-10-30T04:38:15.572Z,14.34
2022-10-30T04:40:43.812Z,14.32
2022-10-30T04:43:11.841Z,14.32
2022-10-30T04:45:39.813Z,14.29
2022-10-30T04:48:15.916Z,14.28
2022-10-30T04:50:43.814Z,14.25
2022-10-30T04:53:15.751Z,14.25
2022-10-30T04:55:44.348Z,14.24
2022-10-30T04:58:13.088Z,14.24
2022-10-30T05:00:40.333Z,14.24
2022-10-30T05:03:07.279Z,14.22
2022-10-30T05:05:34.246Z,14.21
2022-10-30T05:08:01.717Z,14.20
2022-10-30T05:10:28.905Z,14.20
2022-10-30T05:12:55.909Z,14.20
2022-10-30T05:15:22.865Z,14.18
2022-10-30T05:17:54.283Z,14.17
2022-10-30T05:20:21.621Z,14.16
2022-10-30T05:22:59.654Z,14.15
2022-10-30T05:25:28.218Z,14.13
2022-10-30T05:28:04.569Z,14.11
2022-10-30T05:30:34.698Z,14.08
2022-10-30T05:33:07.522Z,14.06
2022-10-30T05:35:36.016Z,14.02
2022-10-30T05:38:06.531Z,14.00
2022-10-30T05:40:35.219Z,13.97
2022-10-30T05:43:02.699Z,13.93
2022-10-30T05:45:29.666Z,13.90
2022-10-30T05:47:58.535Z,13.88
2022-10-30T05:50:27.589Z,13.84
2022-10-30T05:53:04.069Z,13.80
2022-10-30T05:55:31.539Z,13.76
2022-10-30T05:58:04.529Z,13.72
2022-10-30T06:00:35.558Z,13.68
2022-10-30T06:03:12.745Z,13.64
2022-10-30T06:05:39.906Z,13.60
2022-10-30T06:08:08.024Z,13.57
2022-10-30T06:10:35.335Z,13.53
2022-10-30T06:13:06.475Z,13.51
2022-10-30T06:15:33.628Z,13.49
2022-10-30T06:18:01.441Z,13.45
2022-10-30T06:20:30.732Z,13.43
2022-10-30T06:23:06.767Z,13.40
2022-10-30T06:25:40.697Z,13.37
2022-10-30T06:28:11.198Z,13.35
2022-10-30T06:30:38.266Z,13.33
2022-10-30T06:33:06.501Z,13.31
2022-10-30T06:35:33.494Z,13.29
2022-10-30T06:38:00.597Z,13.31
2022-10-30T06:40:30.229Z,13.30
2022-10-30T06:42:58.378Z,13.30
2022-10-30T06:45:25.956Z,13.30
2022-10-30T06:47:53.045Z,13.31
2022-10-30T06:50:22.087Z,13.32
2022-10-30T06:52:49.461Z,13.33
2022-10-30T06:55:17.846Z,13.38
2022-10-30T06:57:44.874Z,13.40
2022-10-30T07:00:13.038Z,13.43
2022-10-30T07:02:40.263Z,13.46
2022-10-30T07:05:07.971Z,13.50
2022-10-30T07:07:34.998Z,13.52
2022-10-30T07:10:02.181Z,13.56
2022-10-30T07:12:29.466Z,13.61
2022-10-30T07:14:56.451Z,13.66
2022-10-30T07:17:23.496Z,13.70
2022-10-30T07:19:50.484Z,13.74
2022-10-30T07:22:17.720Z,13.77
2022-10-30T07:24:44.665Z,13.82
2022-10-30T07:27:11.692Z,13.85
2022-10-30T07:29:38.670Z,13.90
2022-10-30T07:32:05.817Z,13.94
2022-10-30T07:34:33.143Z,13.99
2022-10-30T07:37:00.084Z,14.05
2022-10-30T07:39:27.193Z,14.13
2022-10-30T07:41:54.142Z,14.19
2022-10-30T07:44:21.092Z,14.27
2022-10-30T07:46:48.131Z,14.31
2022-10-30T07:49:15.086Z,14.37
2022-10-30T07:51:42.083Z,14.47
2022-10-30T07:54:09.104Z,14.54
2022-10-30T07:56:36.094Z,14.57
2022-10-30T07:59:03.212Z,14.60
2022-10-30T08:01:30.367Z,14.67
2022-10-30T08:03:58.538Z,14.77
2022-10-30T08:06:27.161Z,14.84
2022-10-30T08:08:54.522Z,14.90
2022-10-30T08:11:21.564Z,14.97
2022-10-30T08:13:48.582Z,15.04
2022-10-30T08:16:17.300Z,15.08
2022-10-30T08:18:44.538Z,15.12
2022-10-30T08:21:11.608Z,15.21
2022-10-30T08:23:38.587Z,15.29
2022-10-30T08:26:06.229Z,15.38
2022-10-30T08:28:33.891Z,15.48
2022-10-30T08:31:02.502Z,15.59
2022-10-30T08:33:29.891Z,15.65
2022-10-30T08:35:59.589Z,15.72
2022-10-30T08:38:28.049Z,15.83
2022-10-30T08:40:55.561Z,15.91
2022-10-30T08:43:23.599Z,16.02
2022-10-30T08:45:50.619Z,16.13
2022-10-30T08:48:17.580Z,16.18
2022-10-30T08:50:45.282Z,16.22
2022-10-30T08:53:15.184Z,16.31
2022-10-30T08:55:42.619Z,16.42
2022-10-30T08:58:09.988Z,16.57
2022-10-30T09:00:37.227Z,16.72
2022-10-30T09:03:04.834Z,16.83
2022-10-30T09:05:32.233Z,16.99
2022-10-30T09:08:01.530Z,17.08
2022-10-30T09:10:30.095Z,17.24
2022-10-30T09:12:58.856Z,17.41
2022-10-30T09:15:26.962Z,17.60
2022-10-30T09:18:03.479Z,17.81
2022-10-30T09:20:31.570Z,18.02
2022-10-30T09:22:59.163Z,18.23
2022-10-30T09:25:27.135Z,18.44
2022-10-30T09:27:54.080Z,18.60
2022-10-30T09:30:21.605Z,18.75
2022-10-30T09:33:02.850Z,18.83
2022-10-30T09:35:31.168Z,18.88
2022-10-30T09:37:58.628Z,18.90
2022-10-30T09:41:14.003Z,18.94
2022-10-30T09:44:31.770Z,19.02
2022-10-30T09:47:05.630Z,19.04
2022-10-30T09:50:03.515Z,18.94
2022-10-30T09:52:58.495Z,18.92
2022-10-30T09:55:55.390Z,18.99
2022-10-30T09:58:37.305Z,19.08
2022-10-30T10:01:44.661Z,19.22
2022-10-30T10:04:42.093Z,19.35
2022-10-30T10:07:28.382Z,19.37
2022-10-30T10:10:03.422Z,19.37
2022-10-30T10:12:48.406Z,19.32
2022-10-30T10:15:38.009Z,19.30
2022-10-30T10:18:19.013Z,19.27
2022-10-30T10:20:51.559Z,19.29
2022-10-30T10:23:27.342Z,19.31
2022-10-30T10:25:55.077Z,19.33
2022-10-30T10:28:36.540Z,19.37
2022-10-30T10:31:32.388Z,19.47
2022-10-30T10:34:27.211Z,19.53
2022-10-30T10:37:48.318Z,19.60
2022-10-30T10:40:30.210Z,19.65
2022-10-30T10:43:19.099Z,19.63
2022-10-30T10:46:43.008Z,19.54
2022-10-30T10:49:39.022Z,19.53
2022-10-30T10:52:53.116Z,19.65
2022-10-30T10:55:26.043Z,19.75
2022-10-30T10:57:53.609Z,19.78
2022-10-30T11:00:23.708Z,19.85
2022-10-30T11:03:13.936Z,19.87
2022-10-30T11:06:19.262Z,19.91
2022-10-30T11:08:47.563Z,19.99
2022-10-30T11:11:15.008Z,20.01
2022-10-30T11:13:45.345Z,20.01
2022-10-30T11:16:38.988Z,20.06
2022-10-30T11:19:09.517Z,20.13
2022-10-30T11:21:43.296Z,20.19
2022-10-30T11:24:36.678Z,20.31
2022-10-30T11:27:23.256Z,20.40
2022-10-30T11:29:57.056Z,20.46
2022-10-30T11:32:32.203Z,20.53
2022-10-30T11:35:10.009Z,20.65
2022-10-30T11:37:40.254Z,20.79
2022-10-30T11:40:13.402Z,20.96
2022-10-30T11:43:03.650Z,21.17
2022-10-30T11:45:41.114Z,21.30
2022-10-30T11:48:27.227Z,21.39
2022-10-30T11:51:03.306Z,21.47
2022-10-30T11:53:39.317Z,21.60
2022-10-30T11:56:22.818Z,21.71
2022-10-30T11:58:59.970Z,21.73
2022-10-30T12:01:36.175Z,21.78
2022-10-30T12:04:24.570Z,21.80
2022-10-30T12:07:21.147Z,21.94
2022-10-30T12:09:48.665Z,21.99
2022-10-30T12:12:38.535Z,22.01
2022-10-30T12:15:37.298Z,22.02
2022-10-30T12:18:08.681Z,22.08
2022-10-30T12:20:39.460Z,22.09
2022-10-30T12:23:20.607Z,22.12
2022-10-30T12:25:49.505Z,22.13
2022-10-30T12:28:25.986Z,22.16
2022-10-30T12:31:15.067Z,22.28
2022-10-30T12:33:50.313Z,22.32
2022-10-30T12:36:22.594Z,22.39
2022-10-30T12:38:57.914Z,22.45
2022-10-30T12:41:58.469Z,22.50
2022-10-30T12:44:34.102Z,22.56
2022-10-30T12:47:25.672Z,22.62
2022-10-30T12:50:01.573Z,22.64
2022-10-30T12:53:05.321Z,22.67
2022-10-30T12:55:42.712Z,22.65
2022-10-30T12:58:39.416Z,22.67
2022-10-30T13:01:37.899Z,22.73
2022-10-30T13:04:29.194Z,22.73
2022-10-30T13:07:12.213Z,22.87
2022-10-30T13:09:44.788Z,22.93
2022-10-30T13:12:37.482Z,22.91
2022-10-30T13:15:37.455Z,22.77
2022-10-30T13:18:23.215Z,22.52
2022-10-30T13:21:23.053Z,22.34
2022-10-30T13:23:56.087Z,22.23
2022-10-30T13:26:43.035Z,22.18
2022-10-30T13:29:30.725Z,22.15
2022-10-30T13:32:19.228Z,22.14
2022-10-30T13:35:17.851Z,22.17
2022-10-30T13:38:21.498Z,22.13
2022-10-30T13:41:14.687Z,22.11
2022-10-30T13:44:04.589Z,22.09
2022-10-30T13:47:12.292Z,22.04
2022-10-30T13:50:00.264Z,22.01
2022-10-30T13:52:31.376Z,21.98
2022-10-30T13:55:29.607Z,22.00
2022-10-30T13:58:38.332Z,22.03
2022-10-30T14:01:22.975Z,22.09
2022-10-30T14:04:20.333Z,22.15
2022-10-30T14:07:15.306Z,22.17
2022-10-30T14:09:59.555Z,22.29
2022-10-30T14:12:51.530Z,22.40
2022-10-30T14:15:27.191Z,22.38
2022-10-30T14:18:14.593Z,22.39
2022-10-30T14:20:57.986Z,22.40
2022-10-30T14:23:36.226Z,22.50
2022-10-30T14:26:06.127Z,22.55
2022-10-30T14:28:36.838Z,22.54
2022-10-30T14:31:16.880Z,22.53
2022-10-30T14:33:52.604Z,22.57
2022-10-30T14:36:34.796Z,22.68
2022-10-30T14:39:29.087Z,22.67
2022-10-30T14:42:40.014Z,22.65
2022-10-30T14:45:40.151Z,22.63
2022-10-30T14:50:49.641Z,22.40
2022-10-30T14:53:58.675Z,22.34
2022-10-30T14:56:49.331Z,22.25
2022-10-30T14:59:16.263Z,22.15
2022-10-30T15:01:55.265Z,22.10
2022-10-30T15:04:46.527Z,22.02
2022-10-30T15:07:38.430Z,21.91
2022-10-30T15:10:35.260Z,21.83
2022-10-30T15:13:22.747Z,21.75
2022-10-30T15:16:10.598Z,21.69
2022-10-30T15:18:40.366Z,21.59
2022-10-30T15:21:08.653Z,21.47
2022-10-30T15:23:37.618Z,21.34
2022-10-30T15:26:18.402Z,21.22
2022-10-30T15:28:52.487Z,21.06
2022-10-30T15:31:24.937Z,20.94
2022-10-30T15:33:57.807Z,20.80
2022-10-30T15:36:34.668Z,20.69
2022-10-30T15:39:19.944Z,20.58
2022-10-30T15:42:04.295Z,20.43
2022-10-30T15:44:35.189Z,20.33
2022-10-30T15:47:08.127Z,20.23
2022-10-30T15:49:40.327Z,20.14
2022-10-30T15:52:34.425Z,20.06
2022-10-30T15:55:13.023Z,19.95
2022-10-30T15:58:12.879Z,19.90
2022-10-30T16:00:38.570Z,19.79
2022-10-30T16:03:17.909Z,19.74
2022-10-30T16:05:45.008Z,19.66
2022-10-30T16:08:21.674Z,19.58
2022-10-30T16:10:52.522Z,19.52
2022-10-30T16:13:40.015Z,19.48
2022-10-30T16:18:41.859Z,19.32
2022-10-30T16:21:14.101Z,19.28
2022-10-30T16:23:48.817Z,19.25
2022-10-30T16:26:37.601Z,19.19
2022-10-30T16:29:13.618Z,19.15
2022-10-30T16:31:43.835Z,19.11
2022-10-30T16:34:19.176Z,19.09
2022-10-30T16:36:46.793Z,19.07
2022-10-30T16:39:16.669Z,19.05
2022-10-30T16:41:44.924Z,19.04
2022-10-30T16:44:17.864Z,19.00
2022-10-30T16:47:22.179Z,18.98
2022-10-30T16:49:57.267Z,18.91
2022-10-30T16:52:35.665Z,18.89
2022-10-30T16:55:14.021Z,18.84
2022-10-30T16:57:47.002Z,18.80
2022-10-30T17:00:26.994Z,18.79
2022-10-30T17:02:58.007Z,18.77
2022-10-30T17:05:38.824Z,18.75
2022-10-30T17:08:17.991Z,18.74
2022-10-30T17:10:58.981Z,18.70
2022-10-30T17:13:46.004Z,18.65
2022-10-30T17:16:30.916Z,18.65
2022-10-30T17:19:31.007Z,18.61
2022-10-30T17:22:12.764Z,18.57
2022-10-30T17:24:40.012Z,18.54
2022-10-30T17:27:27.226Z,18.51
2022-10-30T17:29:55.276Z,18.46
2022-10-30T17:32:44.587Z,18.40
2022-10-30T17:35:19.431Z,18.37
2022-10-30T17:37:46.434Z,18.32
2022-10-30T17:40:14.396Z,18.26
2022-10-30T17:42:41.993Z,18.22
2022-10-30T17:45:14.780Z,18.16
2022-10-30T17:47:42.195Z,18.05
2022-10-30T17:50:09.627Z,17.95
2022-10-30T17:52:36.669Z,17.89
2022-10-30T17:55:23.285Z,17.87
2022-10-30T17:57:50.282Z,17.82
2022-10-30T18:00:17.934Z,17.77
2022-10-30T18:02:45.083Z,17.70
2022-10-30T18:05:19.944Z,17.64
2022-10-30T18:07:47.233Z,17.58
2022-10-30T18:10:14.756Z,17.52
2022-10-30T18:12:41.923Z,17.49
2022-10-30T18:15:31.229Z,17.42
2022-10-30T18:17:58.286Z,17.38
2022-10-30T18:20:26.239Z,17.35
2022-10-30T18:22:53.777Z,17.37
2022-10-30T18:25:30.542Z,17.37
2022-10-30T18:27:57.726Z,17.35
2022-10-30T18:30:25.101Z,17.34
2022-10-30T18:32:52.226Z,17.32
2022-10-30T18:35:27.558Z,17.30
2022-10-30T18:37:54.621Z,17.26
2022-10-30T18:40:22.626Z,17.21
2022-10-30T18:42:49.959Z,17.16
2022-10-30T18:45:25.540Z,17.13
2022-10-30T18:47:54.310Z,17.10
2022-10-30T18:50:23.985Z,17.07
2022-10-30T18:52:51.668Z,17.06
2022-10-30T18:55:33.274Z,17.04
2022-10-30T18:58:01.008Z,16.99
2022-10-30T19:00:39.769Z,16.95
2022-10-30T19:03:17.364Z,16.91
2022-10-30T19:05:50.945Z,16.84
2022-10-30T19:08:17.933Z,16.79
2022-10-30T19:10:47.654Z,16.73
2022-10-30T19:13:21.152Z,16.65
2022-10-30T19:15:57.388Z,16.60
2022-10-30T19:18:28.575Z,16.55
2022-10-30T19:21:04.511Z,16.50
2022-10-30T19:23:33.265Z,16.50
2022-10-30T19:26:00.426Z,16.45
2022-10-30T19:28:27.576Z,16.41
2022-10-30T19:30:54.903Z,16.33
2022-10-30T19:33:23.791Z,16.28
2022-10-30T19:36:04.658Z,16.25
2022-10-30T19:38:32.866Z,16.20
2022-10-30T19:41:00.874Z,16.18
2022-10-30T19:43:27.919Z,16.21
2022-10-30T19:45:59.262Z,16.20
2022-10-30T19:51:13.332Z,16.19
2022-10-30T19:53:40.848Z,16.18
2022-10-30T19:56:12.780Z,16.19
2022-10-30T19:58:39.863Z,16.17
2022-10-30T20:01:06.997Z,16.19
2022-10-30T20:03:34.078Z,16.19
2022-10-30T20:06:01.259Z,16.21
2022-10-30T20:08:28.718Z,16.22
2022-10-30T20:10:59.657Z,16.24
2022-10-30T20:13:28.178Z,16.18
2022-10-30T20:15:58.783Z,16.20
2022-10-30T20:18:30.687Z,16.17
2022-10-30T20:21:08.424Z,16.15
2022-10-30T20:23:35.949Z,16.12
2022-10-30T20:26:29.281Z,16.08
2022-10-30T20:28:56.827Z,16.02
2022-10-30T20:31:23.806Z,15.97
2022-10-30T20:33:50.854Z,15.95
2022-10-30T20:36:17.919Z,15.91
2022-10-30T20:38:44.953Z,15.89
2022-10-30T20:41:23.221Z,15.85
2022-10-30T20:43:50.948Z,15.81
2022-10-30T20:46:18.425Z,15.80
2022-10-30T20:48:45.373Z,15.78
2022-10-30T20:51:13.547Z,15.75
2022-10-30T20:53:40.481Z,15.76
2022-10-30T20:56:07.572Z,15.76
2022-10-30T20:58:34.623Z,15.75
2022-10-30T21:01:01.695Z,15.73
2022-10-30T21:03:28.700Z,15.73
2022-10-30T21:05:58.322Z,15.73
2022-10-30T21:08:27.973Z,15.74
2022-10-30T21:11:00.132Z,15.74
2022-10-30T21:13:28.529Z,15.72
2022-10-30T21:16:00.690Z,15.73
2022-10-30T21:18:27.703Z,15.73
2022-10-30T21:20:54.751Z,15.72
2022-10-30T21:23:21.782Z,15.71
2022-10-30T21:25:48.719Z,15.72
2022-10-30T21:28:15.636Z,15.71
2022-10-30T21:30:42.607Z,15.70
2022-10-30T21:33:09.644Z,15.70
2022-10-30T21:35:36.624Z,15.70
2022-10-30T21:38:03.934Z,15.70
2022-10-30T21:40:30.905Z,15.70
2022-10-30T21:43:01.334Z,15.71
2022-10-30T21:45:31.209Z,15.70
2022-10-30T21:47:58.335Z,15.70
2022-10-30T21:50:25.393Z,15.70
2022-10-30T21:52:52.362Z,15.70
2022-10-30T21:55:19.343Z,15.68
2022-10-30T21:57:46.251Z,15.66
2022-10-30T22:00:14.419Z,15.66
2022-10-30T22:02:41.473Z,15.66
2022-10-30T22:05:08.975Z,15.66
2022-10-30T22:07:36.117Z,15.66
2022-10-30T22:10:03.813Z,15.65
2022-10-30T22:12:30.777Z,15.62
2022-10-30T22:14:57.816Z,15.64
2022-10-30T22:17:24.778Z,15.64
2022-10-30T22:19:51.710Z,15.64
2022-10-30T22:22:18.655Z,15.64
2022-10-30T22:24:45.614Z,15.64
2022-10-30T22:27:12.583Z,15.65
2022-10-30T22:29:39.576Z,15.65
2022-10-30T22:32:06.549Z,15.63
2022-10-30T22:34:33.543Z,15.61
2022-10-30T22:37:00.520Z,15.61
2022-10-30T22:39:27.453Z,15.60
2022-10-30T22:41:54.393Z,15.60
2022-10-30T22:44:23.016Z,15.58
2022-10-30T22:46:50.006Z,15.57
2022-10-30T22:49:17.027Z,15.56
2022-10-30T22:51:44.043Z,15.54
2022-10-30T22:54:12.844Z,15.53
2022-10-30T22:56:40.930Z,15.49
2022-10-30T22:59:12.183Z,15.49
2022-10-30T23:01:40.824Z,15.46
2022-10-30T23:04:10.809Z,15.44
2022-10-30T23:06:37.905Z,15.41
2022-10-30T23:09:10.237Z,15.40
2022-10-30T23:11:37.606Z,15.37
2022-10-30T23:14:04.598Z,15.36
2022-10-30T23:16:31.586Z,15.32
2022-10-30T23:19:00.529Z,15.27
2022-10-30T23:21:30.141Z,15.26
2022-10-30T23:23:58.153Z,15.24
2022-10-30T23:26:29.845Z,15.21
2022-10-30T23:28:58.517Z,15.19
2022-10-30T23:31:36.193Z,15.16
2022-10-30T23:34:07.650Z,15.12
2022-10-30T23:36:34.764Z,15.10
2022-10-30T23:39:06.638Z,15.08
2022-10-30T23:41:36.426Z,15.04
2022-10-30T23:44:07.175Z,15.01
2022-10-30T23:46:36.320Z,14.98
2022-10-30T23:49:04.818Z,14.98
2022-10-30T23:51:32.410Z,14.92
2022-10-30T23:53:59.650Z,14.83
2022-10-30T23:56:29.387Z,14.79
2022-10-30T23:58:57.045Z,14.77
